createdAt,value
2022-10-18T00:02:10.964Z,78.86
2022-10-18T00:02:19.600Z,78.86
2022-10-18T00:07:10.691Z,79.39
2022-10-18T00:08:07.037Z,79.06
2022-10-18T00:11:46.267Z,79.06
2022-10-18T00:12:10.701Z,79.06
2022-10-18T00:17:10.909Z,79.18
2022-10-18T00:20:32.715Z,79.28
2022-10-18T00:22:11.183Z,79.28
2022-10-18T00:22:42.047Z,79.28
2022-10-18T00:27:11.440Z,79.38
2022-10-18T00:30:09.826Z,79.48
2022-10-18T00:32:11.632Z,79.48
2022-10-18T00:36:52.265Z,79.75
2022-10-18T00:37:10.556Z,79.75
2022-10-18T00:42:16.095Z,79.98
2022-10-18T00:47:07.369Z,79.83
2022-10-18T00:47:13.339Z,79.83
2022-10-18T00:52:16.179Z,79.73
2022-10-18T00:56:45.403Z,79.14
2022-10-18T00:57:12.757Z,79.14
2022-10-18T01:02:00.453Z,79.64
2022-10-18T01:02:10.835Z,79.64
2022-10-18T01:07:19.418Z,79.29
2022-10-18T01:12:19.749Z,79.57
2022-10-18T01:17:17.038Z,79.71
2022-10-18T01:19:57.426Z,79.46
2022-10-18T01:22:18.642Z,79.46
2022-10-18T01:27:26.534Z,79.16
2022-10-18T01:32:15.572Z,78.98
2022-10-18T01:37:15.091Z,78.70
2022-10-18T01:42:14.332Z,78.15
2022-10-18T01:47:12.950Z,78.16
2022-10-18T01:47:46.244Z,78.16
2022-10-18T01:49:57.588Z,78.26
2022-10-18T01:51:34.210Z,78.26
2022-10-18T01:52:12.438Z,78.26
2022-10-18T01:57:19.093Z,78.10
2022-10-18T02:02:24.177Z,78.06
2022-10-18T02:07:20.437Z,77.47
2022-10-18T02:12:13.417Z,75.99
2022-10-18T02:17:12.095Z,74.74
2022-10-18T02:22:12.367Z,74.02
2022-10-18T02:27:11.742Z,73.10
2022-10-18T02:32:17.469Z,72.11
2022-10-18T02:37:10.952Z,71.44
2022-10-18T02:39:46.304Z,70.73
2022-10-18T02:42:11.348Z,70.73
2022-10-18T02:47:11.404Z,70.30
2022-10-18T02:52:10.683Z,69.17
2022-10-18T02:57:10.500Z,68.67
2022-10-18T03:02:10.673Z,68.35
2022-10-18T03:07:10.853Z,68.04
2022-10-18T03:12:10.462Z,67.81
2022-10-18T03:17:10.605Z,67.31
2022-10-18T03:22:10.705Z,67.46
2022-10-18T03:27:10.606Z,67.03
2022-10-18T03:32:10.523Z,66.90
2022-10-18T03:37:10.797Z,67.36
2022-10-18T03:42:10.417Z,66.67
2022-10-18T03:45:31.439Z,66.88
2022-10-18T03:47:11.339Z,66.88
2022-10-18T03:52:10.680Z,66.28
2022-10-18T03:57:10.434Z,66.26
2022-10-18T04:02:10.528Z,66.04
2022-10-18T04:07:10.795Z,66.05
2022-10-18T04:12:10.434Z,66.20
2022-10-18T04:17:10.478Z,66.04
2022-10-18T04:22:11.212Z,65.68
2022-10-18T04:27:10.537Z,65.64
2022-10-18T04:32:10.552Z,65.38
2022-10-18T04:37:10.661Z,65.66
2022-10-18T04:42:10.465Z,65.50
2022-10-18T04:47:10.439Z,65.49
2022-10-18T04:52:11.013Z,65.40
2022-10-18T04:57:10.625Z,65.29
2022-10-18T05:02:10.584Z,65.42
2022-10-18T05:07:10.908Z,65.33
2022-10-18T05:10:33.837Z,65.36
2022-10-18T05:12:10.407Z,65.36
2022-10-18T05:14:24.650Z,65.33
2022-10-18T05:17:10.702Z,65.33
2022-10-18T05:17:48.263Z,65.33
2022-10-18T05:20:43.923Z,65.40
2022-10-18T05:22:10.522Z,65.40
2022-10-18T05:23:55.698Z,65.61
2022-10-18T05:26:06.395Z,65.61
2022-10-18T05:27:10.667Z,65.61
2022-10-18T05:32:11.198Z,65.75
2022-10-18T05:37:10.574Z,65.81
2022-10-18T05:42:11.044Z,65.67
2022-10-18T05:47:10.743Z,65.72
2022-10-18T05:52:10.507Z,65.40
2022-10-18T05:57:10.541Z,65.33
2022-10-18T06:02:11.327Z,65.23
2022-10-18T06:07:11.512Z,64.90
2022-10-18T06:12:10.646Z,64.58
2022-10-18T06:16:32.070Z,64.07
2022-10-18T06:17:10.748Z,64.07
2022-10-18T06:20:16.140Z,63.51
2022-10-18T06:22:11.359Z,63.51
2022-10-18T06:27:10.824Z,63.27
2022-10-18T06:32:10.510Z,63.08
2022-10-18T06:37:10.457Z,62.56
2022-10-18T06:42:10.981Z,62.33
2022-10-18T06:47:06.887Z,61.95
2022-10-18T06:47:10.536Z,61.95
2022-10-18T06:52:10.391Z,61.63
2022-10-18T06:57:10.933Z,60.92
2022-10-18T07:02:14.702Z,60.44
2022-10-18T07:07:10.346Z,59.51
2022-10-18T07:12:11.489Z,58.99
2022-10-18T07:17:10.572Z,56.24
2022-10-18T07:22:10.443Z,54.94
2022-10-18T07:27:11.900Z,53.41
2022-10-18T07:32:10.341Z,50.28
2022-10-18T07:37:10.423Z,45.97
2022-10-18T07:42:10.653Z,45.53
2022-10-18T07:47:10.609Z,45.52
2022-10-18T07:52:10.555Z,43.78
2022-10-18T07:57:10.420Z,43.96
2022-10-18T08:02:10.402Z,43.42
2022-10-18T08:07:10.270Z,42.34
2022-10-18T08:09:13.195Z,40.98
2022-10-18T08:12:10.376Z,40.98
2022-10-18T08:15:35.463Z,39.20
2022-10-18T08:17:04.820Z,39.20
2022-10-18T08:17:10.171Z,39.20
2022-10-18T08:19:52.949Z,39.16
2022-10-18T08:21:43.470Z,39.16
2022-10-18T08:22:10.355Z,39.16
2022-10-18T08:26:40.734Z,38.48
2022-10-18T08:27:10.461Z,38.48
2022-10-18T08:32:12.216Z,35.16
2022-10-18T08:32:17.683Z,35.16
2022-10-18T08:37:10.519Z,32.19
2022-10-18T08:42:22.688Z,30.81
2022-10-18T08:47:14.049Z,28.51
2022-10-18T08:52:15.290Z,27.44
2022-10-18T08:57:15.012Z,28.82
2022-10-18T09:02:19.660Z,27.41
2022-10-18T09:07:22.158Z,26.69
2022-10-18T09:12:30.300Z,25.86
2022-10-18T09:15:05.952Z,25.46
2022-10-18T09:16:31.465Z,25.46
2022-10-18T09:17:20.961Z,25.46
2022-10-18T09:20:11.336Z,27.25
2022-10-18T09:22:13.181Z,27.25
2022-10-18T09:27:14.628Z,27.73
2022-10-18T09:32:22.003Z,28.73
2022-10-18T09:37:12.765Z,29.78
2022-10-18T09:38:18.106Z,32.52
2022-10-18T09:39:31.704Z,32.52
2022-10-18T09:42:15.762Z,32.52
2022-10-18T09:43:42.573Z,33.41
2022-10-18T09:47:17.249Z,33.41
2022-10-18T09:51:16.841Z,32.15
2022-10-18T09:52:16.494Z,32.15
2022-10-18T09:54:40.500Z,30.45
2022-10-18T09:57:17.192Z,30.45
2022-10-18T10:02:13.961Z,29.69
2022-10-18T10:07:01.316Z,28.55
2022-10-18T10:07:13.552Z,28.55
2022-10-18T10:12:24.905Z,28.43
2022-10-18T10:17:21.550Z,30.89
2022-10-18T10:22:13.310Z,32.61
2022-10-18T10:27:18.141Z,30.57
2022-10-18T10:32:13.190Z,33.74
2022-10-18T10:37:22.698Z,36.17
2022-10-18T10:42:12.636Z,37.60
2022-10-18T10:47:27.179Z,39.70
2022-10-18T10:52:26.976Z,40.60
2022-10-18T10:57:21.802Z,41.17
2022-10-18T11:02:19.776Z,41.72
2022-10-18T11:07:22.197Z,42.04
2022-10-18T11:12:18.121Z,42.26
2022-10-18T11:17:16.956Z,42.73
2022-10-18T11:22:15.366Z,43.13
2022-10-18T11:27:18.789Z,44.53
2022-10-18T11:32:18.453Z,45.18
2022-10-18T11:37:30.010Z,46.57
2022-10-18T11:42:18.360Z,47.89
2022-10-18T11:47:19.721Z,48.34
2022-10-18T11:52:29.119Z,48.39
2022-10-18T11:57:23.320Z,49.16
2022-10-18T12:02:30.416Z,49.60
2022-10-18T12:07:15.728Z,50.06
2022-10-18T12:11:47.188Z,49.84
2022-10-18T12:12:15.463Z,49.84
2022-10-18T12:15:36.227Z,50.79
2022-10-18T12:17:41.102Z,50.79
2022-10-18T12:20:03.665Z,52.47
2022-10-18T12:22:17.667Z,52.47
2022-10-18T12:27:14.109Z,53.17
2022-10-18T12:32:13.842Z,54.28
2022-10-18T12:37:30.213Z,55.16
2022-10-18T12:42:19.162Z,55.29
2022-10-18T12:47:20.833Z,55.74
2022-10-18T12:52:20.822Z,56.61
2022-10-18T12:57:22.686Z,57.49
2022-10-18T13:02:21.882Z,57.46
2022-10-18T13:07:17.801Z,58.70
2022-10-18T13:12:30.106Z,59.28
2022-10-18T13:17:18.342Z,59.82
2022-10-18T13:22:27.746Z,59.80
2022-10-18T13:27:35.465Z,60.10
2022-10-18T13:32:22.045Z,60.55
2022-10-18T13:37:22.837Z,61.11
2022-10-18T13:42:28.782Z,61.33
2022-10-18T13:47:12.503Z,61.13
2022-10-18T13:52:20.820Z,61.37
2022-10-18T13:57:23.889Z,61.75
2022-10-18T14:02:49.904Z,62.06
2022-10-18T14:07:11.545Z,62.34
2022-10-18T14:12:21.049Z,63.59
2022-10-18T14:17:24.245Z,65.11
2022-10-18T14:22:16.763Z,65.16
2022-10-18T14:27:12.089Z,65.83
2022-10-18T14:32:20.879Z,67.47
2022-10-18T14:37:20.552Z,67.65
2022-10-18T14:42:19.458Z,68.16
2022-10-18T14:47:15.603Z,68.90
2022-10-18T14:52:14.087Z,69.54
2022-10-18T14:57:18.128Z,70.21
2022-10-18T15:02:13.580Z,74.66
2022-10-18T15:07:15.569Z,76.55
2022-10-18T15:12:13.892Z,76.81
2022-10-18T15:17:17.201Z,76.48
2022-10-18T15:22:32.571Z,74.97
2022-10-18T15:27:19.976Z,75.53
2022-10-18T15:32:18.591Z,77.25
2022-10-18T15:37:28.773Z,78.12
2022-10-18T15:42:29.931Z,80.10
2022-10-18T15:47:20.004Z,82.24
2022-10-18T15:49:54.468Z,80.99
2022-10-18T15:52:33.837Z,80.99
2022-10-18T15:55:22.182Z,85.14
2022-10-18T15:56:29.546Z,85.14
2022-10-18T15:57:10.247Z,85.14
2022-10-18T15:58:17.073Z,84.21
2022-10-18T15:59:53.328Z,84.21
2022-10-18T16:01:43.592Z,84.21
2022-10-18T16:02:12.736Z,84.21
2022-10-18T16:07:11.176Z,87.93
2022-10-18T16:12:10.205Z,85.51
2022-10-18T16:17:16.108Z,86.60
2022-10-18T16:27:10.156Z,86.07
2022-10-18T16:32:10.069Z,87.17
2022-10-18T16:37:10.510Z,87.76
2022-10-18T16:39:15.211Z,88.27
2022-10-18T16:40:49.268Z,88.27
2022-10-18T16:42:10.936Z,88.27
2022-10-18T16:43:29.652Z,89.47
2022-10-18T16:47:10.393Z,89.47
2022-10-18T16:49:02.809Z,89.53
2022-10-18T16:52:10.142Z,89.53
2022-10-18T16:57:11.794Z,89.83
2022-10-18T17:02:11.097Z,87.95
2022-10-18T17:12:10.119Z,88.93
2022-10-18T17:17:11.568Z,89.16
2022-10-18T17:20:07.715Z,89.84
2022-10-18T17:22:10.138Z,89.84
2022-10-18T17:27:10.651Z,89.82
2022-10-18T17:32:10.186Z,90.40
2022-10-18T17:37:10.195Z,89.60
2022-10-18T17:42:11.066Z,89.21
2022-10-18T17:47:10.297Z,88.84
2022-10-18T17:52:11.094Z,88.54
2022-10-18T17:57:10.024Z,89.17
2022-10-18T18:02:10.913Z,89.41
2022-10-18T18:07:10.166Z,88.34
2022-10-18T18:12:10.146Z,88.09
2022-10-18T18:17:10.639Z,88.27
2022-10-18T18:22:10.071Z,87.81
2022-10-18T18:27:10.163Z,87.90
2022-10-18T18:32:10.124Z,88.49
2022-10-18T18:37:10.001Z,88.04
2022-10-18T18:42:10.166Z,89.29
2022-10-18T18:47:13.319Z,89.25
2022-10-18T18:52:09.971Z,88.99
2022-10-18T18:57:10.029Z,89.28
2022-10-18T19:02:10.318Z,88.88
2022-10-18T19:07:10.008Z,89.26
2022-10-18T19:10:03.873Z,90.02
2022-10-18T19:12:10.268Z,90.02
2022-10-18T19:13:40.616Z,89.83
2022-10-18T19:17:09.989Z,89.83
2022-10-18T19:17:58.800Z,90.11
2022-10-18T19:19:54.045Z,90.11
2022-10-18T19:21:41.918Z,90.11
2022-10-18T19:22:10.219Z,90.11
2022-10-18T19:27:11.567Z,89.83
2022-10-18T19:29:40.143Z,90.05
2022-10-18T19:31:41.361Z,90.05
2022-10-18T19:32:12.429Z,90.05
2022-10-18T19:37:11.177Z,89.86
2022-10-18T19:42:14.602Z,90.60
2022-10-18T19:44:02.708Z,90.41
2022-10-18T19:47:13.052Z,90.41
2022-10-18T19:47:23.369Z,90.41
2022-10-18T19:51:03.209Z,90.42
2022-10-18T19:52:11.304Z,90.42
2022-10-18T19:57:10.256Z,90.53
2022-10-18T19:57:19.871Z,90.53
2022-10-18T20:02:12.010Z,89.99
2022-10-18T20:06:54.986Z,90.46
2022-10-18T20:07:09.818Z,90.46
2022-10-18T20:12:10.408Z,90.38
2022-10-18T20:17:12.336Z,91.09
2022-10-18T20:17:52.359Z,91.09
2022-10-18T20:22:09.930Z,90.70
2022-10-18T20:26:55.449Z,90.95
2022-10-18T20:27:09.851Z,90.95
2022-10-18T20:32:10.025Z,91.15
2022-10-18T20:37:10.050Z,91.32
2022-10-18T20:42:09.995Z,91.95
2022-10-18T20:47:09.972Z,92.05
2022-10-18T20:52:10.163Z,91.63
2022-10-18T20:54:34.069Z,92.13
2022-10-18T20:57:09.892Z,92.13
2022-10-18T21:02:11.113Z,91.59
2022-10-18T21:07:10.152Z,91.56
2022-10-18T21:17:10.037Z,91.01
2022-10-18T21:19:02.330Z,91.34
2022-10-18T21:21:39.818Z,91.34
2022-10-18T21:22:09.874Z,91.34
2022-10-18T21:25:55.063Z,91.47
2022-10-18T21:27:09.861Z,91.47
2022-10-18T21:30:39.638Z,91.25
2022-10-18T21:32:09.958Z,91.25
2022-10-18T21:35:12.230Z,92.07
2022-10-18T21:37:09.910Z,92.07
2022-10-18T21:41:26.543Z,91.58
2022-10-18T21:42:10.166Z,91.58
2022-10-18T21:47:10.068Z,91.43
2022-10-18T21:52:10.189Z,91.52
2022-10-18T21:57:09.868Z,91.42
2022-10-18T22:02:09.878Z,91.61
2022-10-18T22:07:09.981Z,92.14
2022-10-18T22:12:10.948Z,91.87
2022-10-18T22:17:10.227Z,92.00
2022-10-18T22:22:09.995Z,91.73
2022-10-18T22:27:10.094Z,91.37
2022-10-18T22:32:09.949Z,90.93
2022-10-18T22:37:10.065Z,90.71
2022-10-18T22:42:10.064Z,90.72
2022-10-18T22:47:10.406Z,90.86
2022-10-18T22:52:09.977Z,91.17
2022-10-18T22:57:09.989Z,91.08
2022-10-18T23:02:09.874Z,91.53
2022-10-18T23:07:10.243Z,91.75
2022-10-18T23:12:09.863Z,91.49
2022-10-18T23:17:10.140Z,91.54
2022-10-18T23:22:10.070Z,91.64
2022-10-18T23:27:10.633Z,91.56
2022-10-18T23:32:09.877Z,91.42
2022-10-18T23:37:10.033Z,91.60
2022-10-18T23:39:36.916Z,91.15
2022-10-18T23:42:09.838Z,91.15
2022-10-18T23:47:09.895Z,90.81
2022-10-18T23:52:10.144Z,90.11
2022-10-18T23:57:09.774Z,89.81
